sensor_id;sensor_type;location;lat;lon;timestamp;temperature;humidity
8563;DHT22;16392;52.508;13.468;2023-01-20T00:00:02;2.80;99.90
8563;DHT22;16392;52.508;13.468;2023-01-20T00:02:30;2.70;99.90
8563;DHT22;16392;52.508;13.468;2023-01-20T00:04:56;2.70;99.90
8563;DHT22;16392;52.508;13.468;2023-01-20T00:07:23;2.70;99.90
8563;DHT22;16392;52.508;13.468;2023-01-20T00:09:50;2.70;99.90
8563;DHT22;16392;52.508;13.468;2023-01-20T00:12:16;2.70;99.90
8563;DHT22;16392;52.508;13.468;2023-01-20T00:14:43;2.70;99.90
8563;DHT22;16392;52.508;13.468;2023-01-20T00:17:10;2.70;99.90
8563;DHT22;16392;52.508;13.468;2023-01-20T00:19:38;2.80;99.90
8563;DHT22;16392;52.508;13.468;2023-01-20T00:22:04;2.70;99.90
8563;DHT22;16392;52.508;13.468;2023-01-20T00:24:31;2.80;99.90
8563;DHT22;16392;52.508;13.468;2023-01-20T00:26:59;2.80;99.90
8563;DHT22;16392;52.508;13.468;2023-01-20T00:29:25;2.90;99.90
8563;DHT22;16392;52.508;13.468;2023-01-20T00:31:52;2.90;99.90
8563;DHT22;16392;52.508;13.468;2023-01-20T00:34:19;2.80;99.90
8563;DHT22;16392;52.508;13.468;2023-01-20T00:36:46;2.80;99.90
8563;DHT22;16392;52.508;13.468;2023-01-20T00:39:13;2.70;99.90
8563;DHT22;16392;52.508;13.468;2023-01-20T00:41:40;2.70;99.90
8563;DHT22;16392;52.508;13.468;2023-01-20T00:44:06;2.70;99.90
8563;DHT22;16392;52.508;13.468;2023-01-20T00:46:33;2.60;99.90
8563;DHT22;16392;52.508;13.468;2023-01-20T00:49:00;2.60;99.90
8563;DHT22;16392;52.508;13.468;2023-01-20T00:51:26;2.60;99.90
8563;DHT22;16392;52.508;13.468;2023-01-20T00:53:55;2.60;99.90
8563;DHT22;16392;52.508;13.468;2023-01-20T00:56:22;2.60;99.90
8563;DHT22;16392;52.508;13.468;2023-01-20T00:58:48;2.50;99.90
8563;DHT22;16392;52.508;13.468;2023-01-20T01:01:15;2.50;99.90
8563;DHT22;16392;52.508;13.468;2023-01-20T01:03:43;2.50;99.90
8563;DHT22;16392;52.508;13.468;2023-01-20T01:06:11;2.50;99.90
8563;DHT22;16392;52.508;13.468;2023-01-20T01:08:38;2.50;99.90
8563;DHT22;16392;52.508;13.468;2023-01-20T01:11:06;2.50;99.90
8563;DHT22;16392;52.508;13.468;2023-01-20T01:13:34;2.50;99.90
8563;DHT22;16392;52.508;13.468;2023-01-20T01:16:01;2.50;99.90
8563;DHT22;16392;52.508;13.468;2023-01-20T01:18:28;2.40;99.90
8563;DHT22;16392;52.508;13.468;2023-01-20T01:20:55;2.40;99.90
8563;DHT22;16392;52.508;13.468;2023-01-20T01:23:21;2.40;99.90
8563;DHT22;16392;52.508;13.468;2023-01-20T01:25:48;2.40;99.90
8563;DHT22;16392;52.508;13.468;2023-01-20T01:28:16;2.40;99.90
8563;DHT22;16392;52.508;13.468;2023-01-20T01:30:42;2.40;99.90
8563;DHT22;16392;52.508;13.468;2023-01-20T01:33:09;2.30;99.90
8563;DHT22;16392;52.508;13.468;2023-01-20T01:35:36;2.40;99.90
8563;DHT22;16392;52.508;13.468;2023-01-20T01:38:02;2.30;99.90
8563;DHT22;16392;52.508;13.468;2023-01-20T01:40:29;2.30;99.90
8563;DHT22;16392;52.508;13.468;2023-01-20T01:42:55;2.30;99.90
8563;DHT22;16392;52.508;13.468;2023-01-20T01:45:26;2.20;99.90
8563;DHT22;16392;52.508;13.468;2023-01-20T01:48:06;2.30;99.90
8563;DHT22;16392;52.508;13.468;2023-01-20T01:50:37;2.20;99.90
8563;DHT22;16392;52.508;13.468;2023-01-20T01:53:05;2.20;99.90
8563;DHT22;16392;52.508;13.468;2023-01-20T01:55:37;2.20;99.90
8563;DHT22;16392;52.508;13.468;2023-01-20T01:58:05;2.10;99.90
8563;DHT22;16392;52.508;13.468;2023-01-20T02:00:35;2.10;99.90
8563;DHT22;16392;52.508;13.468;2023-01-20T02:03:03;2.00;99.90
8563;DHT22;16392;52.508;13.468;2023-01-20T02:05:31;1.90;99.90
8563;DHT22;16392;52.508;13.468;2023-01-20T02:07:58;1.90;99.90
8563;DHT22;16392;52.508;13.468;2023-01-20T02:10:24;1.90;99.90
8563;DHT22;16392;52.508;13.468;2023-01-20T02:12:51;1.90;99.90
8563;DHT22;16392;52.508;13.468;2023-01-20T02:15:23;1.80;99.90
8563;DHT22;16392;52.508;13.468;2023-01-20T02:18:09;1.80;99.90
8563;DHT22;16392;52.508;13.468;2023-01-20T02:21:03;1.80;99.90
8563;DHT22;16392;52.508;13.468;2023-01-20T02:24:01;1.80;99.90
8563;DHT22;16392;52.508;13.468;2023-01-20T02:26:47;1.90;99.90
8563;DHT22;16392;52.508;13.468;2023-01-20T02:32:25;1.90;99.90
8563;DHT22;16392;52.508;13.468;2023-01-20T02:34:56;1.90;99.90
8563;DHT22;16392;52.508;13.468;2023-01-20T02:37:27;1.90;99.90
8563;DHT22;16392;52.508;13.468;2023-01-20T02:40:01;1.90;99.90
8563;DHT22;16392;52.508;13.468;2023-01-20T02:42:35;2.00;99.90
8563;DHT22;16392;52.508;13.468;2023-01-20T02:45:07;2.00;99.90
8563;DHT22;16392;52.508;13.468;2023-01-20T02:47:42;2.00;99.90
8563;DHT22;16392;52.508;13.468;2023-01-20T02:50:14;2.00;99.90
8563;DHT22;16392;52.508;13.468;2023-01-20T02:52:45;2.00;99.90
8563;DHT22;16392;52.508;13.468;2023-01-20T02:55:19;2.10;99.90
8563;DHT22;16392;52.508;13.468;2023-01-20T02:57:50;2.10;99.90
8563;DHT22;16392;52.508;13.468;2023-01-20T03:00:22;2.10;99.90
8563;DHT22;16392;52.508;13.468;2023-01-20T03:02:53;2.10;99.90
8563;DHT22;16392;52.508;13.468;2023-01-20T03:05:24;2.10;99.90
8563;DHT22;16392;52.508;13.468;2023-01-20T03:07:52;2.10;99.90
8563;DHT22;16392;52.508;13.468;2023-01-20T03:10:23;2.10;99.90
8563;DHT22;16392;52.508;13.468;2023-01-20T03:12:54;2.00;99.90
8563;DHT22;16392;52.508;13.468;2023-01-20T03:15:23;2.00;99.90
8563;DHT22;16392;52.508;13.468;2023-01-20T03:17:52;1.90;99.90
8563;DHT22;16392;52.508;13.468;2023-01-20T03:20:19;2.00;99.90
8563;DHT22;16392;52.508;13.468;2023-01-20T03:22:45;1.90;99.90
8563;DHT22;16392;52.508;13.468;2023-01-20T03:25:13;2.00;99.90
8563;DHT22;16392;52.508;13.468;2023-01-20T03:27:40;1.90;99.90
8563;DHT22;16392;52.508;13.468;2023-01-20T03:30:12;1.90;99.90
8563;DHT22;16392;52.508;13.468;2023-01-20T03:32:40;1.90;99.90
8563;DHT22;16392;52.508;13.468;2023-01-20T03:35:08;1.90;99.90
8563;DHT22;16392;52.508;13.468;2023-01-20T03:37:35;2.00;99.90
8563;DHT22;16392;52.508;13.468;2023-01-20T03:40:02;2.00;99.90
8563;DHT22;16392;52.508;13.468;2023-01-20T03:42:32;2.00;99.90
8563;DHT22;16392;52.508;13.468;2023-01-20T03:45:05;2.00;99.90
8563;DHT22;16392;52.508;13.468;2023-01-20T03:47:47;2.00;99.90
8563;DHT22;16392;52.508;13.468;2023-01-20T03:50:30;2.10;99.90
8563;DHT22;16392;52.508;13.468;2023-01-20T03:53:05;2.10;99.90
8563;DHT22;16392;52.508;13.468;2023-01-20T03:55:37;2.10;99.90
8563;DHT22;16392;52.508;13.468;2023-01-20T03:58:08;2.00;99.90
8563;DHT22;16392;52.508;13.468;2023-01-20T04:00:38;2.00;99.90
8563;DHT22;16392;52.508;13.468;2023-01-20T04:03:09;2.00;99.90
8563;DHT22;16392;52.508;13.468;2023-01-20T04:05:41;2.00;99.90
8563;DHT22;16392;52.508;13.468;2023-01-20T04:08:09;1.90;99.90
8563;DHT22;16392;52.508;13.468;2023-01-20T04:10:40;1.90;99.90
8563;DHT22;16392;52.508;13.468;2023-01-20T04:13:07;1.80;99.90
8563;DHT22;16392;52.508;13.468;2023-01-20T04:15:37;1.80;99.90
8563;DHT22;16392;52.508;13.468;2023-01-20T04:18:10;1.80;99.90
8563;DHT22;16392;52.508;13.468;2023-01-20T04:20:37;1.80;99.90
8563;DHT22;16392;52.508;13.468;2023-01-20T04:23:05;1.90;99.90
8563;DHT22;16392;52.508;13.468;2023-01-20T04:25:34;1.90;99.90
8563;DHT22;16392;52.508;13.468;2023-01-20T04:28:00;1.90;99.90
8563;DHT22;16392;52.508;13.468;2023-01-20T04:30:27;1.80;99.90
8563;DHT22;16392;52.508;13.468;2023-01-20T04:32:55;1.80;99.90
8563;DHT22;16392;52.508;13.468;2023-01-20T04:35:21;1.80;99.90
8563;DHT22;16392;52.508;13.468;2023-01-20T04:37:48;1.80;99.90
8563;DHT22;16392;52.508;13.468;2023-01-20T04:40:16;1.80;99.90
8563;DHT22;16392;52.508;13.468;2023-01-20T04:42:43;1.80;99.90
8563;DHT22;16392;52.508;13.468;2023-01-20T04:45:13;1.70;99.90
8563;DHT22;16392;52.508;13.468;2023-01-20T04:47:41;1.70;99.90
8563;DHT22;16392;52.508;13.468;2023-01-20T04:50:09;1.70;99.90
8563;DHT22;16392;52.508;13.468;2023-01-20T04:52:35;1.70;99.90
8563;DHT22;16392;52.508;13.468;2023-01-20T04:55:02;1.70;99.90
8563;DHT22;16392;52.508;13.468;2023-01-20T04:57:31;1.70;99.90
8563;DHT22;16392;52.508;13.468;2023-01-20T04:59:57;1.60;99.90
8563;DHT22;16392;52.508;13.468;2023-01-20T05:02:24;1.70;99.90
8563;DHT22;16392;52.508;13.468;2023-01-20T05:04:50;1.60;99.90
8563;DHT22;16392;52.508;13.468;2023-01-20T05:07:17;1.60;99.90
8563;DHT22;16392;52.508;13.468;2023-01-20T05:09:44;1.50;99.90
8563;DHT22;16392;52.508;13.468;2023-01-20T05:12:10;1.60;99.90
8563;DHT22;16392;52.508;13.468;2023-01-20T05:14:38;1.50;99.90
8563;DHT22;16392;52.508;13.468;2023-01-20T05:17:05;1.50;99.90
8563;DHT22;16392;52.508;13.468;2023-01-20T05:19:31;1.60;99.90
8563;DHT22;16392;52.508;13.468;2023-01-20T05:21:58;1.60;99.90
8563;DHT22;16392;52.508;13.468;2023-01-20T05:24:25;1.60;99.90
8563;DHT22;16392;52.508;13.468;2023-01-20T05:26:52;1.70;99.90
8563;DHT22;16392;52.508;13.468;2023-01-20T05:29:18;1.70;99.90
8563;DHT22;16392;52.508;13.468;2023-01-20T05:31:46;1.70;99.90
8563;DHT22;16392;52.508;13.468;2023-01-20T05:34:13;1.70;99.90
8563;DHT22;16392;52.508;13.468;2023-01-20T05:36:40;1.70;99.90
8563;DHT22;16392;52.508;13.468;2023-01-20T05:39:07;1.70;99.90
8563;DHT22;16392;52.508;13.468;2023-01-20T05:41:34;1.60;99.90
8563;DHT22;16392;52.508;13.468;2023-01-20T05:44:01;1.60;99.90
8563;DHT22;16392;52.508;13.468;2023-01-20T05:46:28;1.70;99.90
8563;DHT22;16392;52.508;13.468;2023-01-20T05:48:55;1.50;99.90
8563;DHT22;16392;52.508;13.468;2023-01-20T05:51:22;1.50;99.90
8563;DHT22;16392;52.508;13.468;2023-01-20T05:53:49;1.60;99.90
8563;DHT22;16392;52.508;13.468;2023-01-20T05:56:15;1.60;99.90
8563;DHT22;16392;52.508;13.468;2023-01-20T05:58:42;1.60;99.90
8563;DHT22;16392;52.508;13.468;2023-01-20T06:01:10;1.60;99.90
8563;DHT22;16392;52.508;13.468;2023-01-20T06:03:37;1.60;99.90
8563;DHT22;16392;52.508;13.468;2023-01-20T06:06:09;1.60;99.90
8563;DHT22;16392;52.508;13.468;2023-01-20T06:08:38;1.60;99.90
8563;DHT22;16392;52.508;13.468;2023-01-20T06:11:05;1.60;99.90
8563;DHT22;16392;52.508;13.468;2023-01-20T06:13:31;1.70;99.90
8563;DHT22;16392;52.508;13.468;2023-01-20T06:16:00;1.70;99.90
8563;DHT22;16392;52.508;13.468;2023-01-20T06:18:26;1.70;99.90
8563;DHT22;16392;52.508;13.468;2023-01-20T06:20:55;1.70;99.90
8563;DHT22;16392;52.508;13.468;2023-01-20T06:23:24;1.70;99.90
8563;DHT22;16392;52.508;13.468;2023-01-20T06:25:56;1.60;99.90
8563;DHT22;16392;52.508;13.468;2023-01-20T06:28:23;1.60;99.90
8563;DHT22;16392;52.508;13.468;2023-01-20T06:30:50;1.50;99.90
8563;DHT22;16392;52.508;13.468;2023-01-20T06:33:16;1.40;99.90
8563;DHT22;16392;52.508;13.468;2023-01-20T06:35:43;1.40;99.90
8563;DHT22;16392;52.508;13.468;2023-01-20T06:38:09;1.30;99.90
8563;DHT22;16392;52.508;13.468;2023-01-20T06:40:37;1.30;99.90
8563;DHT22;16392;52.508;13.468;2023-01-20T06:43:04;1.30;99.90
8563;DHT22;16392;52.508;13.468;2023-01-20T06:45:30;1.20;99.90
8563;DHT22;16392;52.508;13.468;2023-01-20T06:47:57;1.10;99.90
8563;DHT22;16392;52.508;13.468;2023-01-20T06:50:23;1.10;99.90
8563;DHT22;16392;52.508;13.468;2023-01-20T06:52:50;1.10;99.90
8563;DHT22;16392;52.508;13.468;2023-01-20T06:55:33;1.10;99.90
8563;DHT22;16392;52.508;13.468;2023-01-20T06:58:01;1.20;99.90
8563;DHT22;16392;52.508;13.468;2023-01-20T07:00:28;1.30;99.90
8563;DHT22;16392;52.508;13.468;2023-01-20T07:02:55;1.20;99.90
8563;DHT22;16392;52.508;13.468;2023-01-20T07:05:21;1.30;99.90
8563;DHT22;16392;52.508;13.468;2023-01-20T07:07:48;1.10;99.90
8563;DHT22;16392;52.508;13.468;2023-01-20T07:10:15;1.10;99.90
8563;DHT22;16392;52.508;13.468;2023-01-20T07:12:41;1.10;99.90
8563;DHT22;16392;52.508;13.468;2023-01-20T07:15:10;1.10;99.90
8563;DHT22;16392;52.508;13.468;2023-01-20T07:17:36;1.00;99.90
8563;DHT22;16392;52.508;13.468;2023-01-20T07:20:04;1.00;99.90
8563;DHT22;16392;52.508;13.468;2023-01-20T07:22:30;1.00;99.90
8563;DHT22;16392;52.508;13.468;2023-01-20T07:24:57;1.00;99.90
8563;DHT22;16392;52.508;13.468;2023-01-20T07:27:23;1.10;99.90
8563;DHT22;16392;52.508;13.468;2023-01-20T07:29:50;1.00;99.90
8563;DHT22;16392;52.508;13.468;2023-01-20T07:32:18;1.10;99.90
8563;DHT22;16392;52.508;13.468;2023-01-20T07:34:45;1.20;99.90
8563;DHT22;16392;52.508;13.468;2023-01-20T07:37:11;1.20;99.90
8563;DHT22;16392;52.508;13.468;2023-01-20T07:39:38;1.20;99.90
8563;DHT22;16392;52.508;13.468;2023-01-20T07:42:05;1.20;99.90
8563;DHT22;16392;52.508;13.468;2023-01-20T07:44:31;1.20;99.90
8563;DHT22;16392;52.508;13.468;2023-01-20T07:46:58;1.00;99.90
8563;DHT22;16392;52.508;13.468;2023-01-20T07:49:26;1.00;99.90
8563;DHT22;16392;52.508;13.468;2023-01-20T07:51:53;1.00;99.90
8563;DHT22;16392;52.508;13.468;2023-01-20T07:54:20;1.00;99.90
8563;DHT22;16392;52.508;13.468;2023-01-20T07:56:46;0.90;99.90
8563;DHT22;16392;52.508;13.468;2023-01-20T07:59:13;1.00;99.90
8563;DHT22;16392;52.508;13.468;2023-01-20T08:01:41;0.90;99.90
8563;DHT22;16392;52.508;13.468;2023-01-20T08:04:08;0.90;99.90
8563;DHT22;16392;52.508;13.468;2023-01-20T08:06:36;0.90;99.90
8563;DHT22;16392;52.508;13.468;2023-01-20T08:09:03;1.00;99.90
8563;DHT22;16392;52.508;13.468;2023-01-20T08:11:29;1.00;99.90
8563;DHT22;16392;52.508;13.468;2023-01-20T08:13:57;1.00;99.90
8563;DHT22;16392;52.508;13.468;2023-01-20T08:16:23;1.10;99.90
8563;DHT22;16392;52.508;13.468;2023-01-20T08:18:52;1.10;99.90
8563;DHT22;16392;52.508;13.468;2023-01-20T08:21:20;1.10;99.90
8563;DHT22;16392;52.508;13.468;2023-01-20T08:23:49;1.20;99.90
8563;DHT22;16392;52.508;13.468;2023-01-20T08:26:16;1.30;99.90
8563;DHT22;16392;52.508;13.468;2023-01-20T08:28:43;1.40;99.90
8563;DHT22;16392;52.508;13.468;2023-01-20T08:31:12;1.40;99.90
8563;DHT22;16392;52.508;13.468;2023-01-20T08:33:40;1.50;99.90
8563;DHT22;16392;52.508;13.468;2023-01-20T08:36:09;1.50;99.90
8563;DHT22;16392;52.508;13.468;2023-01-20T08:38:36;1.50;99.90
8563;DHT22;16392;52.508;13.468;2023-01-20T08:41:07;1.60;99.90
8563;DHT22;16392;52.508;13.468;2023-01-20T08:43:34;1.60;99.90
8563;DHT22;16392;52.508;13.468;2023-01-20T08:46:03;1.80;99.90
8563;DHT22;16392;52.508;13.468;2023-01-20T08:48:31;1.80;99.90
8563;DHT22;16392;52.508;13.468;2023-01-20T08:50:58;1.90;99.90
8563;DHT22;16392;52.508;13.468;2023-01-20T08:53:25;1.90;99.90
8563;DHT22;16392;52.508;13.468;2023-01-20T08:55:56;1.80;99.90
8563;DHT22;16392;52.508;13.468;2023-01-20T08:58:24;1.70;99.90
8563;DHT22;16392;52.508;13.468;2023-01-20T09:00:52;1.70;99.90
8563;DHT22;16392;52.508;13.468;2023-01-20T09:03:19;1.70;99.90
8563;DHT22;16392;52.508;13.468;2023-01-20T09:05:46;1.80;99.90
8563;DHT22;16392;52.508;13.468;2023-01-20T09:08:14;1.70;99.90
8563;DHT22;16392;52.508;13.468;2023-01-20T09:10:42;1.70;99.90
8563;DHT22;16392;52.508;13.468;2023-01-20T09:13:08;1.60;99.90
8563;DHT22;16392;52.508;13.468;2023-01-20T09:15:36;1.60;99.90
8563;DHT22;16392;52.508;13.468;2023-01-20T09:18:03;1.70;99.90
8563;DHT22;16392;52.508;13.468;2023-01-20T09:20:30;1.60;99.90
8563;DHT22;16392;52.508;13.468;2023-01-20T09:23:00;1.60;99.90
8563;DHT22;16392;52.508;13.468;2023-01-20T09:25:28;1.70;99.90
8563;DHT22;16392;52.508;13.468;2023-01-20T09:27:54;1.70;99.90
8563;DHT22;16392;52.508;13.468;2023-01-20T09:30:21;1.70;99.90
8563;DHT22;16392;52.508;13.468;2023-01-20T09:32:49;1.60;99.90
8563;DHT22;16392;52.508;13.468;2023-01-20T09:35:17;1.70;99.90
8563;DHT22;16392;52.508;13.468;2023-01-20T09:37:44;1.90;99.90
8563;DHT22;16392;52.508;13.468;2023-01-20T09:40:36;1.90;99.90
8563;DHT22;16392;52.508;13.468;2023-01-20T09:43:32;1.80;99.90
8563;DHT22;16392;52.508;13.468;2023-01-20T09:46:27;1.90;99.90
8563;DHT22;16392;52.508;13.468;2023-01-20T09:49:08;2.10;99.90
8563;DHT22;16392;52.508;13.468;2023-01-20T09:51:59;2.20;99.90
8563;DHT22;16392;52.508;13.468;2023-01-20T09:54:49;2.20;99.90
8563;DHT22;16392;52.508;13.468;2023-01-20T09:57:23;2.10;99.90
8563;DHT22;16392;52.508;13.468;2023-01-20T09:59:57;2.10;99.90
8563;DHT22;16392;52.508;13.468;2023-01-20T10:02:30;2.10;99.90
8563;DHT22;16392;52.508;13.468;2023-01-20T10:05:04;1.90;99.90
8563;DHT22;16392;52.508;13.468;2023-01-20T10:07:36;1.70;99.90
8563;DHT22;16392;52.508;13.468;2023-01-20T10:10:10;1.80;99.90
8563;DHT22;16392;52.508;13.468;2023-01-20T10:12:41;1.80;99.90
8563;DHT22;16392;52.508;13.468;2023-01-20T10:15:12;1.70;99.90
8563;DHT22;16392;52.508;13.468;2023-01-20T10:17:46;1.80;99.90
8563;DHT22;16392;52.508;13.468;2023-01-20T10:20:20;1.90;99.90
8563;DHT22;16392;52.508;13.468;2023-01-20T10:22:52;2.00;99.90
8563;DHT22;16392;52.508;13.468;2023-01-20T10:25:23;2.10;99.90
8563;DHT22;16392;52.508;13.468;2023-01-20T10:27:56;2.30;99.90
8563;DHT22;16392;52.508;13.468;2023-01-20T10:30:25;2.20;99.90
8563;DHT22;16392;52.508;13.468;2023-01-20T10:32:59;2.00;99.90
8563;DHT22;16392;52.508;13.468;2023-01-20T10:35:33;2.20;99.90
8563;DHT22;16392;52.508;13.468;2023-01-20T10:38:03;2.40;99.90
8563;DHT22;16392;52.508;13.468;2023-01-20T10:40:37;2.50;99.90
8563;DHT22;16392;52.508;13.468;2023-01-20T10:43:09;2.50;99.90
8563;DHT22;16392;52.508;13.468;2023-01-20T10:45:55;2.50;99.90
8563;DHT22;16392;52.508;13.468;2023-01-20T10:48:32;2.50;99.90
8563;DHT22;16392;52.508;13.468;2023-01-20T10:51:05;2.40;99.90
8563;DHT22;16392;52.508;13.468;2023-01-20T10:53:44;2.40;99.90
8563;DHT22;16392;52.508;13.468;2023-01-20T10:56:29;2.50;99.90
8563;DHT22;16392;52.508;13.468;2023-01-20T10:59:01;2.10;99.90
8563;DHT22;16392;52.508;13.468;2023-01-20T11:01:34;2.20;99.90
8563;DHT22;16392;52.508;13.468;2023-01-20T11:04:01;2.30;99.90
8563;DHT22;16392;52.508;13.468;2023-01-20T11:06:29;2.40;99.90
8563;DHT22;16392;52.508;13.468;2023-01-20T11:08:56;2.50;99.90
8563;DHT22;16392;52.508;13.468;2023-01-20T11:11:26;2.50;99.90
8563;DHT22;16392;52.508;13.468;2023-01-20T11:13:53;2.50;99.90
8563;DHT22;16392;52.508;13.468;2023-01-20T11:16:24;2.60;99.90
8563;DHT22;16392;52.508;13.468;2023-01-20T11:18:58;2.70;99.90
8563;DHT22;16392;52.508;13.468;2023-01-20T11:21:26;2.60;99.90
8563;DHT22;16392;52.508;13.468;2023-01-20T11:23:55;2.70;99.90
8563;DHT22;16392;52.508;13.468;2023-01-20T11:26:24;2.40;99.90
8563;DHT22;16392;52.508;13.468;2023-01-20T11:28:53;2.30;99.90
8563;DHT22;16392;52.508;13.468;2023-01-20T11:31:34;2.50;99.90
8563;DHT22;16392;52.508;13.468;2023-01-20T11:34:16;2.60;99.90
8563;DHT22;16392;52.508;13.468;2023-01-20T11:36:44;2.50;99.90
8563;DHT22;16392;52.508;13.468;2023-01-20T11:39:25;2.50;99.90
8563;DHT22;16392;52.508;13.468;2023-01-20T11:42:10;2.60;99.90
8563;DHT22;16392;52.508;13.468;2023-01-20T11:44:41;2.80;99.90
8563;DHT22;16392;52.508;13.468;2023-01-20T11:47:24;2.70;99.90
8563;DHT22;16392;52.508;13.468;2023-01-20T11:50:19;2.70;99.90
8563;DHT22;16392;52.508;13.468;2023-01-20T11:52:49;2.50;99.90
8563;DHT22;16392;52.508;13.468;2023-01-20T11:55:19;2.50;99.90
8563;DHT22;16392;52.508;13.468;2023-01-20T11:57:49;2.60;99.90
8563;DHT22;16392;52.508;13.468;2023-01-20T12:00:29;2.70;99.90
8563;DHT22;16392;52.508;13.468;2023-01-20T12:02:56;2.90;99.90
8563;DHT22;16392;52.508;13.468;2023-01-20T12:05:25;3.10;99.90
8563;DHT22;16392;52.508;13.468;2023-01-20T12:07:56;3.10;99.90
8563;DHT22;16392;52.508;13.468;2023-01-20T12:10:28;3.20;99.90
8563;DHT22;16392;52.508;13.468;2023-01-20T12:12:58;3.20;99.90
8563;DHT22;16392;52.508;13.468;2023-01-20T12:15:30;3.00;99.90
8563;DHT22;16392;52.508;13.468;2023-01-20T12:17:59;3.00;99.90
8563;DHT22;16392;52.508;13.468;2023-01-20T12:20:32;2.90;99.90
8563;DHT22;16392;52.508;13.468;2023-01-20T12:23:11;2.80;99.90
8563;DHT22;16392;52.508;13.468;2023-01-20T12:25:49;2.70;99.90
8563;DHT22;16392;52.508;13.468;2023-01-20T12:28:20;2.70;99.90
8563;DHT22;16392;52.508;13.468;2023-01-20T12:30:53;2.70;99.90
8563;DHT22;16392;52.508;13.468;2023-01-20T12:33:23;2.60;99.90
8563;DHT22;16392;52.508;13.468;2023-01-20T12:36:21;2.40;99.90
8563;DHT22;16392;52.508;13.468;2023-01-20T12:39:03;2.30;99.90
8563;DHT22;16392;52.508;13.468;2023-01-20T12:41:46;2.50;99.90
8563;DHT22;16392;52.508;13.468;2023-01-20T12:44:17;2.50;99.90
8563;DHT22;16392;52.508;13.468;2023-01-20T12:46:48;2.50;99.90
8563;DHT22;16392;52.508;13.468;2023-01-20T12:49:39;2.40;99.90
8563;DHT22;16392;52.508;13.468;2023-01-20T12:52:20;2.30;99.90
8563;DHT22;16392;52.508;13.468;2023-01-20T12:54:58;2.50;99.90
8563;DHT22;16392;52.508;13.468;2023-01-20T12:57:40;2.60;99.90
8563;DHT22;16392;52.508;13.468;2023-01-20T13:00:31;2.60;99.90
8563;DHT22;16392;52.508;13.468;2023-01-20T13:06:17;2.50;99.90
8563;DHT22;16392;52.508;13.468;2023-01-20T13:08:53;2.50;99.90
8563;DHT22;16392;52.508;13.468;2023-01-20T13:11:29;2.70;99.90
8563;DHT22;16392;52.508;13.468;2023-01-20T13:14:08;2.70;99.90
8563;DHT22;16392;52.508;13.468;2023-01-20T13:16:43;2.70;99.90
8563;DHT22;16392;52.508;13.468;2023-01-20T13:19:16;2.60;99.90
8563;DHT22;16392;52.508;13.468;2023-01-20T13:21:45;2.70;99.90
8563;DHT22;16392;52.508;13.468;2023-01-20T13:24:17;2.60;99.90
8563;DHT22;16392;52.508;13.468;2023-01-20T13:26:54;2.50;99.90
8563;DHT22;16392;52.508;13.468;2023-01-20T13:29:40;2.60;99.90
8563;DHT22;16392;52.508;13.468;2023-01-20T13:32:29;2.60;99.90
8563;DHT22;16392;52.508;13.468;2023-01-20T13:34:56;2.70;99.90
8563;DHT22;16392;52.508;13.468;2023-01-20T13:37:26;2.60;99.90
8563;DHT22;16392;52.508;13.468;2023-01-20T13:39:54;2.70;99.90
8563;DHT22;16392;52.508;13.468;2023-01-20T13:42:47;2.60;99.90
8563;DHT22;16392;52.508;13.468;2023-01-20T13:45:24;2.70;99.90
8563;DHT22;16392;52.508;13.468;2023-01-20T13:48:21;2.70;99.90
8563;DHT22;16392;52.508;13.468;2023-01-20T13:50:48;2.70;99.90
8563;DHT22;16392;52.508;13.468;2023-01-20T13:53:26;2.70;99.90
8563;DHT22;16392;52.508;13.468;2023-01-20T13:56:00;2.70;99.90
8563;DHT22;16392;52.508;13.468;2023-01-20T13:58:29;2.70;99.90
8563;DHT22;16392;52.508;13.468;2023-01-20T14:00:58;2.90;99.90
8563;DHT22;16392;52.508;13.468;2023-01-20T14:03:27;2.90;99.90
8563;DHT22;16392;52.508;13.468;2023-01-20T14:05:57;3.00;99.90
8563;DHT22;16392;52.508;13.468;2023-01-20T14:08:26;3.10;99.90
8563;DHT22;16392;52.508;13.468;2023-01-20T14:11:05;3.00;99.90
8563;DHT22;16392;52.508;13.468;2023-01-20T14:13:32;3.00;99.90
8563;DHT22;16392;52.508;13.468;2023-01-20T14:16:00;3.00;99.90
8563;DHT22;16392;52.508;13.468;2023-01-20T14:18:26;3.00;99.90
8563;DHT22;16392;52.508;13.468;2023-01-20T14:20:58;2.80;99.90
8563;DHT22;16392;52.508;13.468;2023-01-20T14:23:33;2.70;99.90
8563;DHT22;16392;52.508;13.468;2023-01-20T14:26:09;2.80;99.90
8563;DHT22;16392;52.508;13.468;2023-01-20T14:28:43;2.70;99.90
8563;DHT22;16392;52.508;13.468;2023-01-20T14:31:23;2.60;99.90
8563;DHT22;16392;52.508;13.468;2023-01-20T14:33:56;2.60;99.90
8563;DHT22;16392;52.508;13.468;2023-01-20T14:36:25;2.60;99.90
8563;DHT22;16392;52.508;13.468;2023-01-20T14:38:54;2.60;99.90
8563;DHT22;16392;52.508;13.468;2023-01-20T14:41:27;2.60;99.90
8563;DHT22;16392;52.508;13.468;2023-01-20T14:43:54;2.70;99.90
8563;DHT22;16392;52.508;13.468;2023-01-20T14:46:22;2.70;99.90
8563;DHT22;16392;52.508;13.468;2023-01-20T14:48:50;2.60;99.90
8563;DHT22;16392;52.508;13.468;2023-01-20T14:51:17;2.60;99.90
8563;DHT22;16392;52.508;13.468;2023-01-20T14:53:44;2.60;99.90
8563;DHT22;16392;52.508;13.468;2023-01-20T14:56:17;2.50;99.90
8563;DHT22;16392;52.508;13.468;2023-01-20T14:58:44;2.50;99.90
8563;DHT22;16392;52.508;13.468;2023-01-20T15:01:19;2.50;99.90
8563;DHT22;16392;52.508;13.468;2023-01-20T15:03:55;2.40;99.90
8563;DHT22;16392;52.508;13.468;2023-01-20T15:06:23;2.30;99.90
8563;DHT22;16392;52.508;13.468;2023-01-20T15:08:51;2.40;99.90
8563;DHT22;16392;52.508;13.468;2023-01-20T15:11:24;2.30;99.90
8563;DHT22;16392;52.508;13.468;2023-01-20T15:14:07;2.30;99.90
8563;DHT22;16392;52.508;13.468;2023-01-20T15:16:47;2.20;99.90
8563;DHT22;16392;52.508;13.468;2023-01-20T15:19:17;2.20;99.90
8563;DHT22;16392;52.508;13.468;2023-01-20T15:21:45;2.20;99.90
8563;DHT22;16392;52.508;13.468;2023-01-20T15:24:13;2.20;99.90
8563;DHT22;16392;52.508;13.468;2023-01-20T15:26:40;2.10;99.90
8563;DHT22;16392;52.508;13.468;2023-01-20T15:29:19;2.10;99.90
8563;DHT22;16392;52.508;13.468;2023-01-20T15:31:46;2.00;99.90
8563;DHT22;16392;52.508;13.468;2023-01-20T15:34:13;1.90;99.90
8563;DHT22;16392;52.508;13.468;2023-01-20T15:36:42;1.80;99.90
8563;DHT22;16392;52.508;13.468;2023-01-20T15:39:10;1.70;99.90
8563;DHT22;16392;52.508;13.468;2023-01-20T15:41:37;1.60;99.90
8563;DHT22;16392;52.508;13.468;2023-01-20T15:44:04;1.60;99.90
8563;DHT22;16392;52.508;13.468;2023-01-20T15:46:31;1.60;99.90
8563;DHT22;16392;52.508;13.468;2023-01-20T15:48:58;1.70;99.90
8563;DHT22;16392;52.508;13.468;2023-01-20T15:51:25;1.60;99.90
8563;DHT22;16392;52.508;13.468;2023-01-20T15:53:54;1.70;99.90
8563;DHT22;16392;52.508;13.468;2023-01-20T15:56:23;1.70;99.90
8563;DHT22;16392;52.508;13.468;2023-01-20T15:58:51;1.70;99.90
8563;DHT22;16392;52.508;13.468;2023-01-20T16:01:19;1.70;99.90
8563;DHT22;16392;52.508;13.468;2023-01-20T16:03:48;1.70;99.90
8563;DHT22;16392;52.508;13.468;2023-01-20T16:06:17;1.70;99.90
8563;DHT22;16392;52.508;13.468;2023-01-20T16:08:46;1.60;99.90
8563;DHT22;16392;52.508;13.468;2023-01-20T16:11:16;1.60;99.90